createdAt,value
2022-10-22T00:00:30.535Z,35.33
2022-10-22T00:02:56.993Z,31.90
2022-10-22T00:05:23.508Z,31.95
2022-10-22T00:07:49.881Z,35.47
2022-10-22T00:10:17.770Z,29.17
2022-10-22T00:12:44.281Z,34.17
2022-10-22T00:15:11.461Z,31.45
2022-10-22T00:17:38.170Z,40.17
2022-10-22T00:20:05.724Z,35.17
2022-10-22T00:22:32.259Z,36.00
2022-10-22T00:24:58.652Z,31.73
2022-10-22T00:27:25.456Z,25.90
2022-10-22T00:29:51.894Z,27.83
2022-10-22T00:32:18.336Z,26.85
2022-10-22T00:34:44.772Z,30.58
2022-10-22T00:37:11.288Z,32.05
2022-10-22T00:39:37.666Z,26.48
2022-10-22T00:42:04.276Z,26.52
2022-10-22T00:45:08.615Z,28.38
2022-10-22T00:47:57.162Z,29.48
2022-10-22T00:50:26.692Z,26.73
2022-10-22T00:52:55.184Z,27.20
2022-10-22T00:55:23.921Z,35.20
2022-10-22T00:57:50.769Z,26.42
2022-10-22T01:00:17.535Z,24.83
2022-10-22T01:02:44.318Z,28.98
2022-10-22T01:05:11.037Z,35.67
2022-10-22T01:07:44.470Z,28.80
2022-10-22T01:10:38.179Z,35.03
2022-10-22T01:13:14.802Z,28.98
2022-10-22T01:16:09.047Z,32.97
2022-10-22T01:18:50.933Z,25.70
2022-10-22T01:21:31.600Z,32.30
2022-10-22T01:24:04.087Z,34.20
2022-10-22T01:26:49.780Z,24.95
2022-10-22T01:29:20.556Z,27.27
2022-10-22T01:31:54.413Z,40.60
2022-10-22T01:34:23.364Z,27.98
2022-10-22T01:36:51.843Z,34.40
2022-10-22T01:39:20.430Z,33.03
2022-10-22T01:41:47.039Z,32.13
2022-10-22T01:44:29.192Z,27.38
2022-10-22T01:47:07.829Z,31.58
2022-10-22T01:50:02.269Z,34.13
2022-10-22T01:52:37.888Z,32.28
2022-10-22T01:55:19.531Z,32.17
2022-10-22T01:58:01.922Z,28.58
2022-10-22T02:00:28.539Z,29.17
2022-10-22T02:03:10.331Z,31.77
2022-10-22T02:05:43.868Z,31.15
2022-10-22T02:08:14.697Z,31.05
2022-10-22T02:10:44.614Z,30.08
2022-10-22T02:13:15.883Z,30.83
2022-10-22T02:15:45.515Z,31.73
2022-10-22T02:18:14.779Z,29.90
2022-10-22T02:20:42.391Z,29.70
2022-10-22T02:23:10.282Z,29.95
2022-10-22T02:25:40.736Z,35.78
2022-10-22T02:30:51.708Z,30.83
2022-10-22T02:33:31.622Z,33.33
2022-10-22T02:36:00.252Z,32.03
2022-10-22T02:38:28.105Z,35.88
2022-10-22T02:40:54.708Z,28.55
2022-10-22T02:43:21.096Z,37.95
2022-10-22T02:45:47.492Z,30.60
2022-10-22T02:48:14.334Z,29.20
2022-10-22T02:50:40.989Z,32.67
2022-10-22T02:53:07.510Z,35.25
2022-10-22T02:55:33.917Z,31.27
2022-10-22T02:58:00.316Z,32.70
2022-10-22T03:00:26.742Z,33.72
2022-10-22T03:02:53.186Z,30.23
2022-10-22T03:05:19.567Z,28.83
2022-10-22T03:07:45.933Z,30.55
2022-10-22T03:10:12.301Z,30.10
2022-10-22T03:12:38.700Z,27.38
2022-10-22T03:15:05.686Z,32.05
2022-10-22T03:17:32.063Z,30.65
2022-10-22T03:19:58.431Z,35.45
2022-10-22T03:22:31.404Z,29.58
2022-10-22T03:25:01.571Z,30.15
2022-10-22T03:27:29.766Z,32.13
2022-10-22T03:29:57.904Z,29.15
2022-10-22T03:32:24.335Z,27.45
2022-10-22T03:34:51.009Z,30.95
2022-10-22T03:37:17.516Z,29.90
2022-10-22T03:39:44.342Z,29.80
2022-10-22T03:42:11.534Z,29.58
2022-10-22T03:44:38.411Z,30.55
2022-10-22T03:47:05.446Z,30.50
2022-10-22T03:49:31.913Z,32.35
2022-10-22T03:51:58.813Z,29.35
2022-10-22T03:54:25.270Z,29.95
2022-10-22T03:56:51.686Z,28.25
2022-10-22T03:59:18.238Z,30.58
2022-10-22T04:01:44.686Z,27.48
2022-10-22T04:04:11.095Z,34.22
2022-10-22T04:06:37.522Z,26.13
2022-10-22T04:09:04.226Z,26.40
2022-10-22T04:11:30.766Z,25.70
2022-10-22T04:13:57.172Z,26.33
2022-10-22T04:16:26.149Z,24.55
2022-10-22T04:18:55.126Z,26.20
2022-10-22T04:21:22.085Z,27.30
2022-10-22T04:23:50.888Z,24.02
2022-10-22T04:26:19.353Z,23.52
2022-10-22T04:28:47.496Z,23.67
2022-10-22T04:31:16.403Z,22.58
2022-10-22T04:33:42.933Z,22.27
2022-10-22T04:36:11.710Z,22.88
2022-10-22T04:38:39.193Z,22.58
2022-10-22T04:41:14.761Z,21.83
2022-10-22T04:43:41.823Z,20.83
2022-10-22T04:46:09.412Z,21.13
2022-10-22T04:48:36.971Z,23.02
2022-10-22T04:51:04.366Z,21.05
2022-10-22T04:53:30.863Z,20.52
2022-10-22T04:56:07.837Z,20.10
2022-10-22T04:58:34.489Z,22.00
2022-10-22T05:01:00.929Z,25.95
2022-10-22T05:03:27.348Z,22.70
2022-10-22T05:05:53.728Z,24.60
2022-10-22T05:08:20.131Z,22.77
2022-10-22T05:10:46.518Z,23.65
2022-10-22T05:13:12.896Z,21.60
2022-10-22T05:15:39.268Z,22.63
2022-10-22T05:18:05.762Z,26.25
2022-10-22T05:20:32.157Z,25.60
2022-10-22T05:22:58.533Z,25.90
2022-10-22T05:25:24.951Z,27.20
2022-10-22T05:27:51.344Z,30.08
2022-10-22T05:30:17.886Z,28.48
2022-10-22T05:32:44.752Z,28.92
2022-10-22T05:35:11.173Z,29.98
2022-10-22T05:37:37.691Z,32.10
2022-10-22T05:40:19.448Z,30.52
2022-10-22T05:42:51.650Z,35.67
2022-10-22T05:45:18.077Z,32.78
2022-10-22T05:47:44.498Z,34.35
2022-10-22T05:50:10.865Z,31.73
2022-10-22T05:52:37.339Z,33.10
2022-10-22T05:55:04.142Z,33.28
2022-10-22T05:57:30.526Z,40.47
2022-10-22T05:59:57.025Z,43.25
2022-10-22T06:02:23.489Z,43.13
2022-10-22T06:04:49.918Z,53.00
2022-10-22T06:07:16.592Z,51.38
2022-10-22T06:09:43.041Z,47.72
2022-10-22T06:12:10.997Z,54.20
2022-10-22T06:14:37.612Z,43.60
2022-10-22T06:17:04.077Z,41.80
2022-10-22T06:19:31.293Z,51.03
2022-10-22T06:21:57.733Z,39.17
2022-10-22T06:24:24.299Z,41.05
2022-10-22T06:26:51.739Z,34.92
2022-10-22T06:29:18.538Z,37.67
2022-10-22T06:31:44.975Z,32.65
2022-10-22T06:34:13.299Z,31.08
2022-10-22T06:36:43.232Z,35.67
2022-10-22T06:39:13.130Z,36.55
2022-10-22T06:41:39.782Z,35.28
2022-10-22T06:44:06.170Z,32.17
2022-10-22T06:46:32.740Z,36.92
2022-10-22T06:49:01.499Z,38.85
2022-10-22T06:51:28.468Z,33.33
2022-10-22T06:53:56.481Z,32.83
2022-10-22T06:56:24.871Z,32.30
2022-10-22T06:58:52.890Z,34.92
2022-10-22T07:01:26.398Z,33.35
2022-10-22T07:03:53.623Z,36.35
2022-10-22T07:06:20.957Z,42.55
2022-10-22T07:08:47.812Z,36.28
2022-10-22T07:11:22.048Z,40.42
2022-10-22T07:13:50.073Z,53.08
2022-10-22T07:16:17.952Z,42.13
2022-10-22T07:18:45.426Z,67.28
2022-10-22T07:21:13.548Z,85.75
2022-10-22T07:23:40.052Z,54.70
2022-10-22T07:26:11.192Z,49.20
2022-10-22T07:28:39.796Z,60.30
2022-10-22T07:31:07.851Z,55.17
2022-10-22T07:33:34.895Z,41.67
2022-10-22T07:36:04.060Z,39.38
2022-10-22T07:38:31.558Z,37.78
2022-10-22T07:40:58.773Z,104.25
2022-10-22T07:43:25.978Z,63.63
2022-10-22T07:45:52.433Z,43.38
2022-10-22T07:48:18.953Z,110.65
2022-10-22T07:50:45.355Z,82.32
2022-10-22T07:53:11.750Z,81.25
2022-10-22T07:55:38.157Z,44.65
2022-10-22T07:58:04.613Z,29.63
2022-10-22T08:00:31.253Z,28.67
2022-10-22T08:02:57.658Z,40.53
2022-10-22T08:05:24.089Z,63.78
2022-10-22T08:07:50.699Z,51.33
2022-10-22T08:10:17.471Z,55.25
2022-10-22T08:12:44.187Z,44.03
2022-10-22T08:15:11.004Z,49.55
2022-10-22T08:17:37.720Z,55.50
2022-10-22T08:20:04.654Z,101.95
2022-10-22T08:22:31.346Z,75.88
2022-10-22T08:24:57.740Z,55.20
2022-10-22T08:27:24.140Z,62.90
2022-10-22T08:29:50.534Z,34.92
2022-10-22T08:32:17.157Z,42.55
2022-10-22T08:34:43.626Z,38.15
2022-10-22T08:37:14.188Z,37.00
2022-10-22T08:39:41.268Z,71.20
2022-10-22T08:42:44.912Z,83.28
2022-10-22T08:45:11.349Z,49.78
2022-10-22T08:47:47.853Z,31.27
2022-10-22T08:50:22.674Z,46.95
2022-10-22T08:52:55.311Z,28.55
2022-10-22T08:55:24.748Z,33.60
2022-10-22T08:58:00.139Z,39.90
2022-10-22T09:00:51.942Z,34.60
2022-10-22T09:03:37.285Z,35.30
2022-10-22T09:06:19.393Z,40.60
2022-10-22T09:08:47.525Z,35.67
2022-10-22T09:11:34.213Z,45.20
2022-10-22T09:14:02.500Z,37.65
2022-10-22T09:17:03.136Z,34.25
2022-10-22T09:19:46.193Z,36.72
2022-10-22T09:22:40.711Z,32.67
2022-10-22T09:25:16.309Z,30.98
2022-10-22T09:27:43.144Z,32.17
2022-10-22T09:30:16.953Z,37.60
2022-10-22T09:32:43.858Z,34.03
2022-10-22T09:35:13.226Z,30.90
2022-10-22T09:37:49.990Z,41.42
2022-10-22T09:40:17.343Z,46.28
2022-10-22T09:42:46.022Z,35.13
2022-10-22T09:45:20.052Z,32.70
2022-10-22T09:48:01.507Z,38.60
2022-10-22T09:50:42.973Z,39.55
2022-10-22T09:53:14.098Z,55.72
2022-10-22T09:55:42.227Z,31.85
2022-10-22T09:58:12.710Z,33.80
2022-10-22T10:00:45.785Z,34.10
2022-10-22T10:03:21.371Z,27.92
2022-10-22T10:05:49.887Z,31.75
2022-10-22T10:08:17.672Z,29.35
2022-10-22T10:10:48.640Z,36.22
2022-10-22T10:13:30.749Z,34.50
2022-10-22T10:16:27.399Z,30.98
2022-10-22T10:18:56.733Z,31.10
2022-10-22T10:21:42.020Z,27.55
2022-10-22T10:24:30.428Z,27.63
2022-10-22T10:27:12.492Z,27.25
2022-10-22T10:30:11.031Z,27.23
2022-10-22T10:33:05.321Z,27.08
2022-10-22T10:35:44.045Z,27.20
2022-10-22T10:38:52.690Z,25.80
2022-10-22T10:41:30.019Z,25.10
2022-10-22T10:44:17.468Z,24.92
2022-10-22T10:47:11.894Z,25.38
2022-10-22T10:49:38.369Z,23.48
2022-10-22T10:52:43.054Z,24.77
2022-10-22T10:55:16.926Z,23.60
2022-10-22T10:58:05.060Z,22.60
2022-10-22T11:00:47.715Z,22.98
2022-10-22T11:03:24.500Z,21.27
2022-10-22T11:06:01.680Z,20.40
2022-10-22T11:08:33.030Z,19.50
2022-10-22T11:11:26.726Z,18.98
2022-10-22T11:13:59.669Z,18.83
2022-10-22T11:16:38.886Z,18.58
2022-10-22T11:19:22.527Z,19.95
2022-10-22T11:21:52.461Z,17.40
2022-10-22T11:24:34.385Z,18.80
2022-10-22T11:27:10.143Z,17.73
2022-10-22T11:29:41.786Z,17.67
2022-10-22T11:32:18.876Z,17.70
2022-10-22T11:34:51.720Z,18.30
2022-10-22T11:37:18.840Z,16.27
2022-10-22T11:39:51.323Z,17.20
2022-10-22T11:42:43.330Z,16.40
2022-10-22T11:45:15.814Z,16.17
2022-10-22T11:47:59.684Z,17.42
2022-10-22T11:50:41.385Z,17.75
2022-10-22T11:53:13.837Z,17.05
2022-10-22T11:55:45.619Z,17.00
2022-10-22T11:58:43.775Z,17.10
2022-10-22T12:01:10.167Z,16.38
2022-10-22T12:03:47.973Z,16.58
2022-10-22T12:06:19.600Z,16.65
2022-10-22T12:08:49.089Z,16.33
2022-10-22T12:11:23.576Z,16.38
2022-10-22T12:14:08.183Z,16.55
2022-10-22T12:16:55.272Z,15.68
2022-10-22T12:19:22.351Z,15.88
2022-10-22T12:22:02.081Z,16.55
2022-10-22T12:24:36.519Z,18.98
2022-10-22T12:27:08.189Z,16.55
2022-10-22T12:29:35.071Z,15.32
2022-10-22T12:32:04.738Z,15.77
2022-10-22T12:34:31.150Z,15.38
2022-10-22T12:36:57.540Z,15.50
2022-10-22T12:39:27.764Z,14.95
2022-10-22T12:41:54.845Z,14.20
2022-10-22T12:44:21.250Z,15.07
2022-10-22T12:46:52.928Z,15.52
2022-10-22T12:49:25.978Z,16.70
2022-10-22T12:51:52.410Z,13.98
2022-10-22T12:54:28.088Z,15.10
2022-10-22T12:56:56.241Z,16.05
2022-10-22T12:59:26.878Z,15.25
2022-10-22T13:01:54.883Z,14.80
2022-10-22T13:04:28.462Z,17.13
2022-10-22T13:07:15.969Z,14.27
2022-10-22T13:10:08.990Z,14.80
2022-10-22T13:12:37.194Z,14.90
2022-10-22T13:15:20.857Z,14.80
2022-10-22T13:17:49.243Z,16.52
2022-10-22T13:20:23.546Z,13.32
2022-10-22T13:23:04.481Z,14.60
2022-10-22T13:25:33.686Z,17.15
2022-10-22T13:28:24.546Z,13.13
2022-10-22T13:30:56.994Z,12.63
2022-10-22T13:33:41.543Z,13.20
2022-10-22T13:36:16.253Z,12.00
2022-10-22T13:38:45.003Z,12.07
2022-10-22T13:41:27.141Z,13.20
2022-10-22T13:43:54.489Z,13.32
2022-10-22T13:46:22.074Z,14.05
2022-10-22T13:48:53.745Z,13.05
2022-10-22T13:51:23.934Z,12.48
2022-10-22T13:53:52.907Z,13.45
2022-10-22T13:56:21.100Z,13.82
2022-10-22T13:58:48.391Z,13.15
2022-10-22T14:01:23.485Z,12.27
2022-10-22T14:03:52.382Z,13.73
2022-10-22T14:06:22.438Z,11.75
2022-10-22T14:08:58.407Z,12.43
2022-10-22T14:11:27.254Z,13.77
2022-10-22T14:13:54.412Z,10.05
2022-10-22T14:16:24.418Z,13.63
2022-10-22T14:18:51.540Z,13.27
2022-10-22T14:21:18.499Z,12.55
2022-10-22T14:23:46.492Z,9.15
2022-10-22T14:26:23.152Z,11.07
2022-10-22T14:31:43.494Z,11.82
2022-10-22T14:34:12.086Z,15.98
2022-10-22T14:36:38.728Z,13.55
2022-10-22T14:39:05.251Z,12.52
2022-10-22T14:41:35.127Z,12.38
2022-10-22T14:44:01.763Z,12.05
2022-10-22T14:46:28.258Z,11.02
2022-10-22T14:48:54.661Z,13.23
2022-10-22T14:51:21.656Z,11.00
2022-10-22T14:53:50.313Z,10.10
2022-10-22T14:56:21.376Z,11.20
2022-10-22T14:58:48.279Z,10.52
2022-10-22T15:01:14.882Z,12.65
2022-10-22T15:03:41.580Z,13.18
2022-10-22T15:06:09.178Z,13.50
2022-10-22T15:08:35.774Z,11.38
2022-10-22T15:11:06.020Z,16.92
2022-10-22T15:13:32.814Z,12.10
2022-10-22T15:15:59.908Z,12.10
2022-10-22T15:18:27.274Z,14.30
2022-10-22T15:20:57.377Z,15.07
2022-10-22T15:23:24.000Z,16.00
2022-10-22T15:25:50.678Z,16.80
2022-10-22T15:28:17.372Z,14.82
2022-10-22T15:30:43.865Z,16.92
2022-10-22T15:33:11.330Z,15.25
2022-10-22T15:35:37.741Z,15.45
2022-10-22T15:38:06.654Z,15.63
2022-10-22T15:40:33.097Z,17.67
2022-10-22T15:42:59.528Z,16.52
2022-10-22T15:45:25.995Z,19.90
2022-10-22T15:47:52.471Z,18.77
2022-10-22T15:50:18.946Z,18.23
2022-10-22T15:52:45.467Z,17.92
2022-10-22T15:57:39.764Z,19.63
2022-10-22T16:00:07.592Z,17.58
2022-10-22T16:02:34.191Z,16.38
2022-10-22T16:05:00.656Z,16.10
2022-10-22T16:07:27.145Z,16.77
2022-10-22T16:09:58.142Z,16.25
2022-10-22T16:12:24.701Z,16.30
2022-10-22T16:14:51.823Z,16.30
2022-10-22T16:17:18.540Z,17.52
2022-10-22T16:19:45.009Z,21.60
2022-10-22T16:22:13.735Z,19.73
2022-10-22T16:24:43.133Z,17.25
2022-10-22T16:27:09.929Z,15.50
2022-10-22T16:29:40.088Z,18.80
2022-10-22T16:32:06.720Z,15.65
2022-10-22T16:34:33.178Z,16.27
2022-10-22T16:36:59.566Z,12.05
2022-10-22T16:39:25.975Z,13.07
2022-10-22T16:41:52.478Z,11.85
2022-10-22T16:44:18.887Z,11.77
2022-10-22T16:46:45.318Z,12.18
2022-10-22T16:49:11.949Z,11.02
2022-10-22T16:51:39.278Z,11.73
2022-10-22T16:54:08.353Z,12.98
2022-10-22T16:56:37.835Z,11.30
2022-10-22T16:59:04.264Z,12.30
2022-10-22T17:01:33.221Z,10.40
2022-10-22T17:04:01.550Z,11.63
2022-10-22T17:06:27.982Z,7.75
2022-10-22T17:08:54.613Z,10.20
2022-10-22T17:11:24.163Z,9.40
2022-10-22T17:13:53.883Z,9.10
2022-10-22T17:16:23.932Z,7.82
2022-10-22T17:18:51.164Z,10.48
2022-10-22T17:21:19.291Z,8.55
2022-10-22T17:23:47.359Z,8.02
2022-10-22T17:26:20.798Z,10.80
2022-10-22T17:28:50.967Z,8.90
2022-10-22T17:31:21.100Z,9.15
2022-10-22T17:33:49.225Z,10.57
2022-10-22T17:36:18.129Z,10.02
2022-10-22T17:38:49.594Z,9.82
2022-10-22T17:41:19.847Z,9.82
2022-10-22T17:43:47.609Z,7.88
2022-10-22T17:46:22.729Z,7.93
2022-10-22T17:49:01.699Z,9.57
2022-10-22T17:51:40.933Z,8.57
2022-10-22T17:54:09.907Z,9.27
2022-10-22T17:56:40.399Z,8.63
2022-10-22T17:59:08.756Z,9.88
2022-10-22T18:01:37.959Z,10.30
2022-10-22T18:04:08.417Z,9.25
2022-10-22T18:09:06.834Z,6.35
2022-10-22T18:11:36.640Z,6.85
2022-10-22T18:14:04.072Z,7.57
2022-10-22T18:16:30.477Z,7.82
2022-10-22T18:18:57.838Z,7.85
2022-10-22T18:21:27.577Z,10.13
2022-10-22T18:23:54.546Z,8.00
2022-10-22T18:26:24.373Z,10.63
2022-10-22T18:28:53.620Z,8.00
2022-10-22T18:31:22.493Z,9.63
2022-10-22T18:33:50.257Z,8.57
2022-10-22T18:36:20.062Z,8.60
2022-10-22T18:38:50.797Z,11.45
2022-10-22T18:41:17.804Z,7.88
2022-10-22T18:43:44.614Z,8.93
2022-10-22T18:46:11.731Z,9.55
2022-10-22T18:48:39.164Z,8.93
2022-10-22T18:51:08.906Z,9.48
2022-10-22T18:53:37.153Z,9.18
2022-10-22T18:56:09.162Z,7.80
2022-10-22T18:58:40.347Z,8.20
2022-10-22T19:01:22.464Z,9.55
2022-10-22T19:03:50.331Z,10.23
2022-10-22T19:06:25.672Z,10.45
2022-10-22T19:08:52.931Z,9.73
2022-10-22T19:11:22.107Z,9.15
2022-10-22T19:13:51.351Z,8.63
2022-10-22T19:16:23.635Z,9.65
2022-10-22T19:19:00.026Z,6.85
2022-10-22T19:21:29.595Z,9.10
2022-10-22T19:24:05.267Z,7.68
2022-10-22T19:26:34.428Z,7.10
2022-10-22T19:29:02.896Z,6.70
2022-10-22T19:31:31.485Z,8.18
2022-10-22T19:34:00.067Z,9.05
2022-10-22T19:36:30.245Z,9.57
2022-10-22T19:38:57.520Z,7.60
2022-10-22T19:41:26.282Z,6.13
2022-10-22T19:43:54.464Z,8.70
2022-10-22T19:46:22.552Z,7.93
2022-10-22T19:48:49.878Z,7.88
2022-10-22T19:51:19.867Z,7.15
2022-10-22T19:53:49.553Z,7.45
2022-10-22T19:56:18.596Z,7.95
2022-10-22T19:58:45.357Z,7.68
2022-10-22T20:01:17.836Z,6.95
2022-10-22T20:03:47.696Z,5.57
2022-10-22T20:06:16.598Z,5.65
2022-10-22T20:08:44.308Z,5.50
2022-10-22T20:11:19.717Z,6.38
2022-10-22T20:13:49.734Z,5.60
2022-10-22T20:16:23.511Z,4.38
2022-10-22T20:18:53.113Z,5.63
2022-10-22T20:21:20.479Z,5.40
2022-10-22T20:23:54.546Z,5.80
2022-10-22T20:26:21.354Z,5.68
2022-10-22T20:28:47.773Z,7.90
2022-10-22T20:31:17.469Z,8.13
2022-10-22T20:33:43.922Z,6.57
2022-10-22T20:36:15.684Z,7.32
2022-10-22T20:38:42.228Z,6.40
2022-10-22T20:41:13.837Z,7.30
2022-10-22T20:43:40.195Z,5.10
2022-10-22T20:46:06.865Z,4.65
2022-10-22T20:48:35.454Z,5.55
2022-10-22T20:51:01.940Z,5.28
2022-10-22T20:53:28.770Z,4.85
2022-10-22T20:55:59.159Z,6.07
2022-10-22T21:00:55.188Z,5.15
2022-10-22T21:03:22.962Z,5.72
2022-10-22T21:05:49.815Z,5.78
2022-10-22T21:08:17.984Z,5.38
2022-10-22T21:10:49.664Z,6.15
2022-10-22T21:13:17.490Z,6.60
2022-10-22T21:15:44.055Z,5.38
2022-10-22T21:18:11.156Z,6.65
2022-10-22T21:20:41.231Z,4.85
2022-10-22T21:23:08.218Z,8.40
2022-10-22T21:25:38.461Z,6.38
2022-10-22T21:28:08.488Z,5.05
2022-10-22T21:30:34.880Z,7.78
2022-10-22T21:33:01.270Z,6.10
2022-10-22T21:35:28.411Z,7.13
2022-10-22T21:37:55.090Z,6.07
2022-10-22T21:40:21.927Z,6.18
2022-10-22T21:42:49.892Z,6.80
2022-10-22T21:45:19.893Z,6.95
2022-10-22T21:47:48.032Z,7.07
2022-10-22T21:50:14.483Z,9.20
2022-10-22T21:52:41.082Z,7.20
2022-10-22T21:55:08.354Z,9.02
2022-10-22T21:57:34.906Z,10.55
2022-10-22T22:00:01.582Z,9.88
2022-10-22T22:02:31.885Z,8.57
2022-10-22T22:07:24.680Z,7.80
2022-10-22T22:09:51.094Z,7.93
2022-10-22T22:12:18.336Z,9.68
2022-10-22T22:14:44.701Z,8.70
2022-10-22T22:17:11.145Z,8.45
2022-10-22T22:19:41.090Z,12.60
2022-10-22T22:22:07.504Z,12.93
2022-10-22T22:24:34.257Z,10.48
2022-10-22T22:27:00.658Z,9.88
2022-10-22T22:29:27.340Z,8.80
2022-10-22T22:31:53.825Z,9.23
2022-10-22T22:34:20.185Z,7.97
2022-10-22T22:36:48.936Z,8.73
2022-10-22T22:39:20.658Z,6.78
2022-10-22T22:41:48.089Z,7.13
2022-10-22T22:44:15.448Z,6.97
2022-10-22T22:46:45.032Z,6.13
2022-10-22T22:49:15.834Z,7.55
2022-10-22T22:51:43.467Z,9.27
2022-10-22T22:54:11.088Z,7.97
2022-10-22T22:56:37.768Z,9.43
2022-10-22T22:59:05.396Z,7.47
2022-10-22T23:01:35.026Z,8.82
2022-10-22T23:04:12.475Z,7.95
2022-10-22T23:06:39.908Z,9.48
2022-10-22T23:09:08.817Z,9.70
2022-10-22T23:11:36.015Z,8.45
2022-10-22T23:14:04.988Z,8.70
2022-10-22T23:16:33.809Z,9.10
2022-10-22T23:19:00.993Z,8.35
2022-10-22T23:21:29.901Z,8.15
2022-10-22T23:23:58.872Z,7.95
2022-10-22T23:26:37.284Z,7.65
2022-10-22T23:29:10.158Z,10.95
2022-10-22T23:31:36.572Z,7.82
2022-10-22T23:34:03.189Z,8.55
2022-10-22T23:36:29.609Z,8.00
2022-10-22T23:38:56.151Z,10.98
2022-10-22T23:41:22.535Z,9.40
2022-10-22T23:43:50.066Z,11.15
2022-10-22T23:46:16.583Z,9.73
2022-10-22T23:48:42.947Z,9.55
2022-10-22T23:51:12.579Z,6.90
2022-10-22T23:53:39.611Z,8.90
2022-10-22T23:56:12.409Z,9.55
2022-10-22T23:58:39.147Z,10.30
